sensor_id;sensor_type;location;lat;lon;timestamp;P1;durP1;ratioP1;P2;durP2;ratioP2
3991;SDS011;2010;48.194;16.394;2023-09-12T00:00:47;19.30;;;9.40;;
3991;SDS011;2010;48.194;16.394;2023-09-12T00:03:20;11.27;;;9.30;;
3991;SDS011;2010;48.194;16.394;2023-09-12T00:05:59;16.50;;;8.90;;
3991;SDS011;2010;48.194;16.394;2023-09-12T00:08:37;13.17;;;9.83;;
3991;SDS011;2010;48.194;16.394;2023-09-12T00:11:07;9.27;;;8.50;;
3991;SDS011;2010;48.194;16.394;2023-09-12T00:13:40;14.70;;;8.60;;
3991;SDS011;2010;48.194;16.394;2023-09-12T00:16:09;17.80;;;8.97;;
3991;SDS011;2010;48.194;16.394;2023-09-12T00:18:42;16.90;;;9.20;;
3991;SDS011;2010;48.194;16.394;2023-09-12T00:21:13;9.27;;;8.13;;
3991;SDS011;2010;48.194;16.394;2023-09-12T00:24:00;19.53;;;8.90;;
3991;SDS011;2010;48.194;16.394;2023-09-12T00:26:31;14.83;;;8.70;;
3991;SDS011;2010;48.194;16.394;2023-09-12T00:29:14;10.00;;;8.97;;
3991;SDS011;2010;48.194;16.394;2023-09-12T00:31:43;21.43;;;9.40;;
3991;SDS011;2010;48.194;16.394;2023-09-12T00:34:15;12.73;;;9.50;;
3991;SDS011;2010;48.194;16.394;2023-09-12T00:36:47;15.30;;;8.47;;
3991;SDS011;2010;48.194;16.394;2023-09-12T00:39:18;15.70;;;7.90;;
3991;SDS011;2010;48.194;16.394;2023-09-12T00:42:04;11.50;;;8.77;;
3991;SDS011;2010;48.194;16.394;2023-09-12T00:44:35;15.00;;;9.33;;
3991;SDS011;2010;48.194;16.394;2023-09-12T00:47:04;10.37;;;8.77;;
3991;SDS011;2010;48.194;16.394;2023-09-12T00:49:41;11.10;;;8.93;;
3991;SDS011;2010;48.194;16.394;2023-09-12T00:52:22;12.47;;;9.00;;
3991;SDS011;2010;48.194;16.394;2023-09-12T00:55:01;15.43;;;9.70;;
3991;SDS011;2010;48.194;16.394;2023-09-12T00:57:35;21.33;;;10.20;;
3991;SDS011;2010;48.194;16.394;2023-09-12T01:00:11;15.80;;;8.93;;
3991;SDS011;2010;48.194;16.394;2023-09-12T01:02:45;14.40;;;9.50;;
3991;SDS011;2010;48.194;16.394;2023-09-12T01:05:17;10.00;;;8.93;;
3991;SDS011;2010;48.194;16.394;2023-09-12T01:07:48;9.77;;;8.57;;
3991;SDS011;2010;48.194;16.394;2023-09-12T01:10:26;19.47;;;10.23;;
3991;SDS011;2010;48.194;16.394;2023-09-12T01:12:58;15.40;;;8.80;;
3991;SDS011;2010;48.194;16.394;2023-09-12T01:15:31;9.50;;;8.53;;
3991;SDS011;2010;48.194;16.394;2023-09-12T01:18:01;11.07;;;9.97;;
3991;SDS011;2010;48.194;16.394;2023-09-12T01:20:32;10.43;;;8.80;;
3991;SDS011;2010;48.194;16.394;2023-09-12T01:23:24;9.73;;;8.90;;
3991;SDS011;2010;48.194;16.394;2023-09-12T01:26:38;10.23;;;8.93;;
3991;SDS011;2010;48.194;16.394;2023-09-12T01:29:14;9.30;;;8.37;;
3991;SDS011;2010;48.194;16.394;2023-09-12T01:31:46;15.80;;;9.87;;
3991;SDS011;2010;48.194;16.394;2023-09-12T01:34:20;10.73;;;8.63;;
3991;SDS011;2010;48.194;16.394;2023-09-12T01:36:53;12.87;;;9.80;;
3991;SDS011;2010;48.194;16.394;2023-09-12T01:39:26;11.53;;;9.10;;
3991;SDS011;2010;48.194;16.394;2023-09-12T01:41:57;10.83;;;9.00;;
3991;SDS011;2010;48.194;16.394;2023-09-12T01:44:42;11.33;;;9.30;;
3991;SDS011;2010;48.194;16.394;2023-09-12T01:47:16;10.27;;;9.27;;
3991;SDS011;2010;48.194;16.394;2023-09-12T01:49:51;13.23;;;9.50;;
3991;SDS011;2010;48.194;16.394;2023-09-12T01:52:27;9.90;;;9.00;;
3991;SDS011;2010;48.194;16.394;2023-09-12T01:54:58;9.60;;;8.70;;
3991;SDS011;2010;48.194;16.394;2023-09-12T01:57:30;12.30;;;9.77;;
3991;SDS011;2010;48.194;16.394;2023-09-12T02:00:08;17.80;;;10.10;;
3991;SDS011;2010;48.194;16.394;2023-09-12T02:02:40;10.20;;;9.20;;
3991;SDS011;2010;48.194;16.394;2023-09-12T02:05:13;14.20;;;9.50;;
3991;SDS011;2010;48.194;16.394;2023-09-12T02:07:46;15.60;;;9.77;;
3991;SDS011;2010;48.194;16.394;2023-09-12T02:10:23;10.30;;;9.40;;
3991;SDS011;2010;48.194;16.394;2023-09-12T02:13:06;14.70;;;10.10;;
3991;SDS011;2010;48.194;16.394;2023-09-12T02:15:39;12.43;;;10.63;;
3991;SDS011;2010;48.194;16.394;2023-09-12T02:18:23;13.47;;;10.07;;
3991;SDS011;2010;48.194;16.394;2023-09-12T02:20:53;17.77;;;11.50;;
3991;SDS011;2010;48.194;16.394;2023-09-12T02:23:30;13.90;;;10.30;;
3991;SDS011;2010;48.194;16.394;2023-09-12T02:26:04;18.50;;;11.40;;
3991;SDS011;2010;48.194;16.394;2023-09-12T02:28:32;14.93;;;10.80;;
3991;SDS011;2010;48.194;16.394;2023-09-12T02:31:07;12.47;;;10.60;;
3991;SDS011;2010;48.194;16.394;2023-09-12T02:33:40;17.00;;;11.10;;
3991;SDS011;2010;48.194;16.394;2023-09-12T02:36:14;12.83;;;11.53;;
3991;SDS011;2010;48.194;16.394;2023-09-12T02:38:47;12.17;;;11.17;;
3991;SDS011;2010;48.194;16.394;2023-09-12T02:41:18;15.90;;;10.30;;
3991;SDS011;2010;48.194;16.394;2023-09-12T02:43:46;13.73;;;9.80;;
3991;SDS011;2010;48.194;16.394;2023-09-12T02:46:37;13.10;;;11.30;;
3991;SDS011;2010;48.194;16.394;2023-09-12T02:49:12;12.87;;;10.87;;
3991;SDS011;2010;48.194;16.394;2023-09-12T02:51:51;14.47;;;10.90;;
3991;SDS011;2010;48.194;16.394;2023-09-12T02:54:22;12.50;;;11.20;;
3991;SDS011;2010;48.194;16.394;2023-09-12T02:57:03;12.57;;;10.93;;
3991;SDS011;2010;48.194;16.394;2023-09-12T02:59:33;18.93;;;10.43;;
3991;SDS011;2010;48.194;16.394;2023-09-12T03:02:07;22.27;;;11.30;;
3991;SDS011;2010;48.194;16.394;2023-09-12T03:04:43;13.83;;;10.70;;
3991;SDS011;2010;48.194;16.394;2023-09-12T03:07:15;15.73;;;11.63;;
3991;SDS011;2010;48.194;16.394;2023-09-12T03:09:47;11.30;;;10.27;;
3991;SDS011;2010;48.194;16.394;2023-09-12T03:12:16;13.40;;;10.73;;
3991;SDS011;2010;48.194;16.394;2023-09-12T03:14:49;11.77;;;10.50;;
3991;SDS011;2010;48.194;16.394;2023-09-12T03:17:30;16.00;;;12.00;;
3991;SDS011;2010;48.194;16.394;2023-09-12T03:20:09;12.10;;;10.87;;
3991;SDS011;2010;48.194;16.394;2023-09-12T03:22:47;13.90;;;11.53;;
3991;SDS011;2010;48.194;16.394;2023-09-12T03:25:19;13.43;;;11.40;;
3991;SDS011;2010;48.194;16.394;2023-09-12T03:27:51;17.43;;;11.00;;
3991;SDS011;2010;48.194;16.394;2023-09-12T03:30:24;12.60;;;10.77;;
3991;SDS011;2010;48.194;16.394;2023-09-12T03:32:54;14.23;;;11.30;;
3991;SDS011;2010;48.194;16.394;2023-09-12T03:35:28;12.57;;;11.10;;
3991;SDS011;2010;48.194;16.394;2023-09-12T03:38:04;14.23;;;11.63;;
3991;SDS011;2010;48.194;16.394;2023-09-12T03:40:34;15.03;;;12.17;;
3991;SDS011;2010;48.194;16.394;2023-09-12T03:43:03;14.73;;;12.40;;
3991;SDS011;2010;48.194;16.394;2023-09-12T03:45:33;19.03;;;13.80;;
3991;SDS011;2010;48.194;16.394;2023-09-12T03:48:11;17.93;;;13.00;;
3991;SDS011;2010;48.194;16.394;2023-09-12T03:50:46;16.77;;;12.57;;
3991;SDS011;2010;48.194;16.394;2023-09-12T03:53:18;16.13;;;12.10;;
3991;SDS011;2010;48.194;16.394;2023-09-12T03:56:04;16.80;;;12.53;;
3991;SDS011;2010;48.194;16.394;2023-09-12T03:58:35;17.17;;;12.30;;
3991;SDS011;2010;48.194;16.394;2023-09-12T04:01:14;15.47;;;13.10;;
3991;SDS011;2010;48.194;16.394;2023-09-12T04:03:51;13.93;;;12.00;;
3991;SDS011;2010;48.194;16.394;2023-09-12T04:06:31;14.63;;;12.63;;
3991;SDS011;2010;48.194;16.394;2023-09-12T04:09:04;14.07;;;12.10;;
3991;SDS011;2010;48.194;16.394;2023-09-12T04:11:36;14.30;;;12.80;;
3991;SDS011;2010;48.194;16.394;2023-09-12T04:14:13;18.73;;;13.10;;
3991;SDS011;2010;48.194;16.394;2023-09-12T04:16:44;17.67;;;12.00;;
3991;SDS011;2010;48.194;16.394;2023-09-12T04:19:23;13.50;;;12.17;;
3991;SDS011;2010;48.194;16.394;2023-09-12T04:21:54;14.00;;;12.60;;
3991;SDS011;2010;48.194;16.394;2023-09-12T04:24:22;15.67;;;12.43;;
3991;SDS011;2010;48.194;16.394;2023-09-12T04:26:56;13.80;;;12.40;;
3991;SDS011;2010;48.194;16.394;2023-09-12T04:29:26;14.67;;;12.97;;
3991;SDS011;2010;48.194;16.394;2023-09-12T04:31:55;13.80;;;12.60;;
3991;SDS011;2010;48.194;16.394;2023-09-12T04:34:32;14.73;;;13.30;;
3991;SDS011;2010;48.194;16.394;2023-09-12T04:37:05;14.43;;;12.50;;
3991;SDS011;2010;48.194;16.394;2023-09-12T04:39:42;13.70;;;12.40;;
3991;SDS011;2010;48.194;16.394;2023-09-12T04:42:26;13.97;;;11.77;;
3991;SDS011;2010;48.194;16.394;2023-09-12T04:44:58;22.57;;;13.87;;
3991;SDS011;2010;48.194;16.394;2023-09-12T04:47:30;16.00;;;12.83;;
3991;SDS011;2010;48.194;16.394;2023-09-12T04:50:08;16.77;;;12.90;;
3991;SDS011;2010;48.194;16.394;2023-09-12T04:52:46;17.90;;;12.97;;
3991;SDS011;2010;48.194;16.394;2023-09-12T04:55:17;12.77;;;11.47;;
3991;SDS011;2010;48.194;16.394;2023-09-12T04:57:48;17.83;;;13.40;;
3991;SDS011;2010;48.194;16.394;2023-09-12T05:00:21;13.90;;;12.70;;
3991;SDS011;2010;48.194;16.394;2023-09-12T05:02:52;13.73;;;12.20;;
3991;SDS011;2010;48.194;16.394;2023-09-12T05:05:26;13.17;;;11.43;;
3991;SDS011;2010;48.194;16.394;2023-09-12T05:07:59;17.50;;;12.60;;
3991;SDS011;2010;48.194;16.394;2023-09-12T05:10:31;15.20;;;12.73;;
3991;SDS011;2010;48.194;16.394;2023-09-12T05:13:07;17.80;;;12.80;;
3991;SDS011;2010;48.194;16.394;2023-09-12T05:15:47;13.77;;;12.30;;
3991;SDS011;2010;48.194;16.394;2023-09-12T05:18:21;15.97;;;13.93;;
3991;SDS011;2010;48.194;16.394;2023-09-12T05:20:52;15.23;;;12.70;;
3991;SDS011;2010;48.194;16.394;2023-09-12T05:23:25;18.73;;;13.07;;
3991;SDS011;2010;48.194;16.394;2023-09-12T05:25:54;15.60;;;13.90;;
3991;SDS011;2010;48.194;16.394;2023-09-12T05:28:23;17.77;;;13.40;;
3991;SDS011;2010;48.194;16.394;2023-09-12T05:30:58;20.60;;;13.80;;
3991;SDS011;2010;48.194;16.394;2023-09-12T05:33:33;15.00;;;12.83;;
3991;SDS011;2010;48.194;16.394;2023-09-12T05:36:07;18.53;;;13.93;;
3991;SDS011;2010;48.194;16.394;2023-09-12T05:38:40;15.53;;;13.90;;
3991;SDS011;2010;48.194;16.394;2023-09-12T05:41:11;18.53;;;14.23;;
3991;SDS011;2010;48.194;16.394;2023-09-12T05:43:43;19.33;;;14.53;;
3991;SDS011;2010;48.194;16.394;2023-09-12T05:46:13;22.57;;;14.40;;
3991;SDS011;2010;48.194;16.394;2023-09-12T05:48:48;16.83;;;15.00;;
3991;SDS011;2010;48.194;16.394;2023-09-12T05:51:21;16.87;;;14.90;;
3991;SDS011;2010;48.194;16.394;2023-09-12T05:53:50;16.90;;;14.23;;
3991;SDS011;2010;48.194;16.394;2023-09-12T05:56:29;15.60;;;14.00;;
3991;SDS011;2010;48.194;16.394;2023-09-12T05:58:59;22.57;;;15.00;;
3991;SDS011;2010;48.194;16.394;2023-09-12T06:01:28;24.83;;;14.73;;
3991;SDS011;2010;48.194;16.394;2023-09-12T06:04:02;19.73;;;15.60;;
3991;SDS011;2010;48.194;16.394;2023-09-12T06:06:41;22.70;;;15.27;;
3991;SDS011;2010;48.194;16.394;2023-09-12T06:09:10;20.10;;;15.40;;
3991;SDS011;2010;48.194;16.394;2023-09-12T06:11:41;22.73;;;15.40;;
3991;SDS011;2010;48.194;16.394;2023-09-12T06:14:10;22.33;;;15.87;;
3991;SDS011;2010;48.194;16.394;2023-09-12T06:16:39;22.93;;;15.40;;
3991;SDS011;2010;48.194;16.394;2023-09-12T06:19:14;17.30;;;15.57;;
3991;SDS011;2010;48.194;16.394;2023-09-12T06:22:02;18.13;;;16.23;;
3991;SDS011;2010;48.194;16.394;2023-09-12T06:24:33;17.33;;;15.40;;
3991;SDS011;2010;48.194;16.394;2023-09-12T06:27:07;17.80;;;15.23;;
3991;SDS011;2010;48.194;16.394;2023-09-12T06:29:41;19.53;;;14.87;;
3991;SDS011;2010;48.194;16.394;2023-09-12T06:32:19;22.70;;;15.30;;
3991;SDS011;2010;48.194;16.394;2023-09-12T06:34:52;16.90;;;15.20;;
3991;SDS011;2010;48.194;16.394;2023-09-12T06:37:25;16.80;;;15.00;;
3991;SDS011;2010;48.194;16.394;2023-09-12T06:39:54;33.70;;;17.10;;
3991;SDS011;2010;48.194;16.394;2023-09-12T06:42:27;20.53;;;17.03;;
3991;SDS011;2010;48.194;16.394;2023-09-12T06:44:59;19.37;;;15.33;;
3991;SDS011;2010;48.194;16.394;2023-09-12T06:47:31;22.07;;;16.40;;
3991;SDS011;2010;48.194;16.394;2023-09-12T06:50:03;20.73;;;16.27;;
3991;SDS011;2010;48.194;16.394;2023-09-12T06:52:39;18.60;;;16.70;;
3991;SDS011;2010;48.194;16.394;2023-09-12T06:55:12;24.90;;;17.40;;
3991;SDS011;2010;48.194;16.394;2023-09-12T06:57:47;23.43;;;17.53;;
3991;SDS011;2010;48.194;16.394;2023-09-12T07:00:20;23.50;;;18.80;;
3991;SDS011;2010;48.194;16.394;2023-09-12T07:02:51;22.93;;;17.87;;
3991;SDS011;2010;48.194;16.394;2023-09-12T07:05:23;24.53;;;17.87;;
3991;SDS011;2010;48.194;16.394;2023-09-12T07:08:07;21.30;;;16.87;;
3991;SDS011;2010;48.194;16.394;2023-09-12T07:10:43;29.23;;;19.00;;
3991;SDS011;2010;48.194;16.394;2023-09-12T07:13:15;18.87;;;15.20;;
3991;SDS011;2010;48.194;16.394;2023-09-12T07:15:49;19.43;;;15.20;;
3991;SDS011;2010;48.194;16.394;2023-09-12T07:18:28;20.97;;;15.77;;
3991;SDS011;2010;48.194;16.394;2023-09-12T07:20:58;16.80;;;15.10;;
3991;SDS011;2010;48.194;16.394;2023-09-12T07:23:42;17.90;;;15.73;;
3991;SDS011;2010;48.194;16.394;2023-09-12T07:26:12;18.60;;;14.57;;
3991;SDS011;2010;48.194;16.394;2023-09-12T07:28:54;22.73;;;13.67;;
3991;SDS011;2010;48.194;16.394;2023-09-12T07:31:33;16.43;;;14.73;;
3991;SDS011;2010;48.194;16.394;2023-09-12T07:34:05;15.63;;;13.93;;
3991;SDS011;2010;48.194;16.394;2023-09-12T07:36:37;15.50;;;13.93;;
3991;SDS011;2010;48.194;16.394;2023-09-12T07:39:19;16.37;;;14.70;;
3991;SDS011;2010;48.194;16.394;2023-09-12T07:41:49;15.00;;;13.40;;
3991;SDS011;2010;48.194;16.394;2023-09-12T07:44:21;19.60;;;14.63;;
3991;SDS011;2010;48.194;16.394;2023-09-12T07:46:58;16.13;;;14.43;;
3991;SDS011;2010;48.194;16.394;2023-09-12T07:49:31;19.47;;;14.10;;
3991;SDS011;2010;48.194;16.394;2023-09-12T07:52:03;15.40;;;13.83;;
3991;SDS011;2010;48.194;16.394;2023-09-12T07:54:35;21.60;;;15.40;;
3991;SDS011;2010;48.194;16.394;2023-09-12T07:57:12;17.37;;;14.50;;
3991;SDS011;2010;48.194;16.394;2023-09-12T07:59:47;17.13;;;13.83;;
3991;SDS011;2010;48.194;16.394;2023-09-12T08:02:16;19.70;;;14.63;;
3991;SDS011;2010;48.194;16.394;2023-09-12T08:04:48;15.70;;;14.10;;
3991;SDS011;2010;48.194;16.394;2023-09-12T08:07:19;20.30;;;13.07;;
3991;SDS011;2010;48.194;16.394;2023-09-12T08:10:01;17.13;;;15.30;;
3991;SDS011;2010;48.194;16.394;2023-09-12T08:12:32;19.33;;;13.60;;
3991;SDS011;2010;48.194;16.394;2023-09-12T08:15:06;17.40;;;13.70;;
3991;SDS011;2010;48.194;16.394;2023-09-12T08:17:44;15.37;;;13.50;;
3991;SDS011;2010;48.194;16.394;2023-09-12T08:20:18;19.40;;;12.70;;
3991;SDS011;2010;48.194;16.394;2023-09-12T08:22:49;13.90;;;12.50;;
3991;SDS011;2010;48.194;16.394;2023-09-12T08:25:22;17.80;;;13.27;;
3991;SDS011;2010;48.194;16.394;2023-09-12T08:27:54;20.40;;;14.13;;
3991;SDS011;2010;48.194;16.394;2023-09-12T08:30:26;15.30;;;13.70;;
3991;SDS011;2010;48.194;16.394;2023-09-12T08:32:57;16.10;;;14.00;;
3991;SDS011;2010;48.194;16.394;2023-09-12T08:35:38;17.10;;;13.47;;
3991;SDS011;2010;48.194;16.394;2023-09-12T08:38:14;20.23;;;12.33;;
3991;SDS011;2010;48.194;16.394;2023-09-12T08:40:51;18.80;;;13.50;;
3991;SDS011;2010;48.194;16.394;2023-09-12T08:43:24;15.37;;;13.93;;
3991;SDS011;2010;48.194;16.394;2023-09-12T08:45:54;15.03;;;13.30;;
3991;SDS011;2010;48.194;16.394;2023-09-12T08:48:26;16.90;;;13.83;;
3991;SDS011;2010;48.194;16.394;2023-09-12T08:51:01;18.03;;;13.43;;
3991;SDS011;2010;48.194;16.394;2023-09-12T08:53:35;20.63;;;14.77;;
3991;SDS011;2010;48.194;16.394;2023-09-12T08:56:12;29.13;;;16.83;;
3991;SDS011;2010;48.194;16.394;2023-09-12T08:58:44;17.67;;;13.67;;
3991;SDS011;2010;48.194;16.394;2023-09-12T09:01:18;14.73;;;13.13;;
3991;SDS011;2010;48.194;16.394;2023-09-12T09:03:47;18.00;;;13.43;;
3991;SDS011;2010;48.194;16.394;2023-09-12T09:06:18;19.23;;;14.83;;
3991;SDS011;2010;48.194;16.394;2023-09-12T09:08:57;18.33;;;13.83;;
3991;SDS011;2010;48.194;16.394;2023-09-12T09:11:37;22.03;;;14.20;;
3991;SDS011;2010;48.194;16.394;2023-09-12T09:14:09;14.50;;;13.00;;
3991;SDS011;2010;48.194;16.394;2023-09-12T09:16:43;25.73;;;15.70;;
3991;SDS011;2010;48.194;16.394;2023-09-12T09:19:13;18.40;;;14.97;;
3991;SDS011;2010;48.194;16.394;2023-09-12T09:21:58;27.13;;;16.53;;
3991;SDS011;2010;48.194;16.394;2023-09-12T09:24:36;19.73;;;14.23;;
3991;SDS011;2010;48.194;16.394;2023-09-12T09:27:07;18.60;;;14.80;;
3991;SDS011;2010;48.194;16.394;2023-09-12T09:29:46;18.20;;;12.90;;
3991;SDS011;2010;48.194;16.394;2023-09-12T09:32:19;22.67;;;14.73;;
3991;SDS011;2010;48.194;16.394;2023-09-12T09:34:52;20.03;;;12.90;;
3991;SDS011;2010;48.194;16.394;2023-09-12T09:37:24;19.13;;;14.60;;
3991;SDS011;2010;48.194;16.394;2023-09-12T09:39:53;16.10;;;13.23;;
3991;SDS011;2010;48.194;16.394;2023-09-12T09:45:16;23.73;;;14.00;;
3991;SDS011;2010;48.194;16.394;2023-09-12T09:47:49;24.53;;;15.60;;
3991;SDS011;2010;48.194;16.394;2023-09-12T09:50:20;19.27;;;14.90;;
3991;SDS011;2010;48.194;16.394;2023-09-12T09:52:57;15.67;;;13.53;;
3991;SDS011;2010;48.194;16.394;2023-09-12T09:55:41;15.43;;;13.83;;
3991;SDS011;2010;48.194;16.394;2023-09-12T09:58:26;13.97;;;12.67;;
3991;SDS011;2010;48.194;16.394;2023-09-12T10:00:58;13.70;;;12.30;;
3991;SDS011;2010;48.194;16.394;2023-09-12T10:03:34;13.80;;;12.33;;
3991;SDS011;2010;48.194;16.394;2023-09-12T10:06:17;14.93;;;12.83;;
3991;SDS011;2010;48.194;16.394;2023-09-12T10:08:55;12.70;;;11.50;;
3991;SDS011;2010;48.194;16.394;2023-09-12T10:11:27;13.23;;;12.07;;
3991;SDS011;2010;48.194;16.394;2023-09-12T10:13:59;14.17;;;12.80;;
3991;SDS011;2010;48.194;16.394;2023-09-12T10:16:33;16.47;;;12.90;;
3991;SDS011;2010;48.194;16.394;2023-09-12T10:19:07;13.77;;;12.33;;
3991;SDS011;2010;48.194;16.394;2023-09-12T10:21:45;15.00;;;13.50;;
3991;SDS011;2010;48.194;16.394;2023-09-12T10:24:20;13.63;;;12.23;;
3991;SDS011;2010;48.194;16.394;2023-09-12T10:26:51;13.80;;;11.63;;
3991;SDS011;2010;48.194;16.394;2023-09-12T10:29:28;13.07;;;11.77;;
3991;SDS011;2010;48.194;16.394;2023-09-12T10:32:03;13.20;;;11.80;;
3991;SDS011;2010;48.194;16.394;2023-09-12T10:34:42;14.20;;;12.70;;
3991;SDS011;2010;48.194;16.394;2023-09-12T10:37:15;14.03;;;12.63;;
3991;SDS011;2010;48.194;16.394;2023-09-12T10:39:49;14.37;;;12.83;;
3991;SDS011;2010;48.194;16.394;2023-09-12T10:42:19;13.63;;;12.33;;
3991;SDS011;2010;48.194;16.394;2023-09-12T10:44:51;21.63;;;13.87;;
3991;SDS011;2010;48.194;16.394;2023-09-12T10:47:31;16.53;;;12.10;;
3991;SDS011;2010;48.194;16.394;2023-09-12T10:50:10;16.20;;;12.27;;
3991;SDS011;2010;48.194;16.394;2023-09-12T10:52:49;24.70;;;12.00;;
3991;SDS011;2010;48.194;16.394;2023-09-12T10:55:18;17.80;;;11.00;;
3991;SDS011;2010;48.194;16.394;2023-09-12T10:57:59;11.97;;;10.73;;
3991;SDS011;2010;48.194;16.394;2023-09-12T11:00:45;12.90;;;11.70;;
3991;SDS011;2010;48.194;16.394;2023-09-12T11:03:53;10.80;;;9.80;;
3991;SDS011;2010;48.194;16.394;2023-09-12T11:06:24;11.93;;;10.33;;
3991;SDS011;2010;48.194;16.394;2023-09-12T11:09:16;13.97;;;10.70;;
3991;SDS011;2010;48.194;16.394;2023-09-12T11:11:54;11.27;;;10.00;;
3991;SDS011;2010;48.194;16.394;2023-09-12T11:14:25;21.53;;;11.30;;
3991;SDS011;2010;48.194;16.394;2023-09-12T11:19:53;11.60;;;10.40;;
3991;SDS011;2010;48.194;16.394;2023-09-12T11:22:26;11.37;;;10.20;;
3991;SDS011;2010;48.194;16.394;2023-09-12T11:25:02;12.63;;;10.30;;
3991;SDS011;2010;48.194;16.394;2023-09-12T11:27:44;14.50;;;10.10;;
3991;SDS011;2010;48.194;16.394;2023-09-12T11:30:19;14.83;;;9.70;;
3991;SDS011;2010;48.194;16.394;2023-09-12T11:32:53;10.53;;;8.93;;
3991;SDS011;2010;48.194;16.394;2023-09-12T11:35:25;11.53;;;10.43;;
3991;SDS011;2010;48.194;16.394;2023-09-12T11:37:56;9.87;;;8.87;;
3991;SDS011;2010;48.194;16.394;2023-09-12T11:40:45;12.10;;;9.80;;
3991;SDS011;2010;48.194;16.394;2023-09-12T11:43:22;10.30;;;9.30;;
3991;SDS011;2010;48.194;16.394;2023-09-12T11:45:55;10.70;;;9.70;;
3991;SDS011;2010;48.194;16.394;2023-09-12T11:48:27;12.87;;;10.17;;
3991;SDS011;2010;48.194;16.394;2023-09-12T11:50:58;10.93;;;9.03;;
3991;SDS011;2010;48.194;16.394;2023-09-12T11:53:29;14.37;;;9.93;;
3991;SDS011;2010;48.194;16.394;2023-09-12T11:56:06;14.90;;;9.03;;
3991;SDS011;2010;48.194;16.394;2023-09-12T11:58:38;18.23;;;9.90;;
3991;SDS011;2010;48.194;16.394;2023-09-12T12:01:13;17.03;;;10.23;;
3991;SDS011;2010;48.194;16.394;2023-09-12T12:03:55;10.43;;;9.33;;
3991;SDS011;2010;48.194;16.394;2023-09-12T12:06:25;15.63;;;10.63;;
3991;SDS011;2010;48.194;16.394;2023-09-12T12:08:56;11.07;;;9.90;;
3991;SDS011;2010;48.194;16.394;2023-09-12T12:11:30;14.00;;;11.00;;
3991;SDS011;2010;48.194;16.394;2023-09-12T12:14:10;14.80;;;10.13;;
3991;SDS011;2010;48.194;16.394;2023-09-12T12:16:49;14.40;;;9.00;;
3991;SDS011;2010;48.194;16.394;2023-09-12T12:19:21;16.17;;;9.33;;
3991;SDS011;2010;48.194;16.394;2023-09-12T12:22:01;9.60;;;8.60;;
3991;SDS011;2010;48.194;16.394;2023-09-12T12:24:44;15.80;;;10.27;;
3991;SDS011;2010;48.194;16.394;2023-09-12T12:27:16;12.03;;;9.20;;
3991;SDS011;2010;48.194;16.394;2023-09-12T12:29:47;11.40;;;9.30;;
3991;SDS011;2010;48.194;16.394;2023-09-12T12:32:19;9.90;;;8.87;;
3991;SDS011;2010;48.194;16.394;2023-09-12T12:34:52;11.83;;;8.77;;
3991;SDS011;2010;48.194;16.394;2023-09-12T12:37:43;13.80;;;9.13;;
3991;SDS011;2010;48.194;16.394;2023-09-12T12:40:21;10.70;;;9.47;;
3991;SDS011;2010;48.194;16.394;2023-09-12T12:43:16;11.30;;;9.30;;
3991;SDS011;2010;48.194;16.394;2023-09-12T12:45:55;14.33;;;9.77;;
3991;SDS011;2010;48.194;16.394;2023-09-12T12:48:30;13.63;;;10.33;;
3991;SDS011;2010;48.194;16.394;2023-09-12T12:53:53;11.13;;;10.03;;
3991;SDS011;2010;48.194;16.394;2023-09-12T12:56:27;15.47;;;9.70;;
3991;SDS011;2010;48.194;16.394;2023-09-12T12:59:03;11.90;;;8.17;;
3991;SDS011;2010;48.194;16.394;2023-09-12T13:01:44;9.40;;;8.50;;
3991;SDS011;2010;48.194;16.394;2023-09-12T13:04:23;11.57;;;8.80;;
3991;SDS011;2010;48.194;16.394;2023-09-12T13:06:56;11.13;;;8.13;;
3991;SDS011;2010;48.194;16.394;2023-09-12T13:09:34;14.57;;;9.67;;
3991;SDS011;2010;48.194;16.394;2023-09-12T13:12:06;11.53;;;8.00;;
3991;SDS011;2010;48.194;16.394;2023-09-12T13:14:41;8.73;;;7.90;;
3991;SDS011;2010;48.194;16.394;2023-09-12T13:17:14;12.57;;;8.70;;
3991;SDS011;2010;48.194;16.394;2023-09-12T13:19:48;11.67;;;8.47;;
3991;SDS011;2010;48.194;16.394;2023-09-12T13:22:22;11.50;;;8.30;;
3991;SDS011;2010;48.194;16.394;2023-09-12T13:24:51;10.10;;;7.97;;
3991;SDS011;2010;48.194;16.394;2023-09-12T13:27:29;11.37;;;8.70;;
3991;SDS011;2010;48.194;16.394;2023-09-12T13:29:58;14.30;;;8.47;;
3991;SDS011;2010;48.194;16.394;2023-09-12T13:32:38;16.50;;;8.60;;
3991;SDS011;2010;48.194;16.394;2023-09-12T13:35:10;12.50;;;8.50;;
3991;SDS011;2010;48.194;16.394;2023-09-12T13:37:46;11.43;;;8.67;;
3991;SDS011;2010;48.194;16.394;2023-09-12T13:40:25;12.30;;;8.73;;
3991;SDS011;2010;48.194;16.394;2023-09-12T13:42:55;10.63;;;9.40;;
3991;SDS011;2010;48.194;16.394;2023-09-12T13:45:24;10.53;;;8.23;;
3991;SDS011;2010;48.194;16.394;2023-09-12T13:47:54;12.40;;;8.20;;
3991;SDS011;2010;48.194;16.394;2023-09-12T13:50:28;20.07;;;8.37;;
3991;SDS011;2010;48.194;16.394;2023-09-12T13:53:05;8.50;;;7.60;;
3991;SDS011;2010;48.194;16.394;2023-09-12T13:55:39;14.10;;;8.27;;
3991;SDS011;2010;48.194;16.394;2023-09-12T13:58:33;10.33;;;8.37;;
3991;SDS011;2010;48.194;16.394;2023-09-12T14:01:12;11.97;;;9.03;;
3991;SDS011;2010;48.194;16.394;2023-09-12T14:04:01;10.87;;;8.30;;
3991;SDS011;2010;48.194;16.394;2023-09-12T14:06:47;12.47;;;7.90;;
3991;SDS011;2010;48.194;16.394;2023-09-12T14:09:22;15.20;;;9.03;;
3991;SDS011;2010;48.194;16.394;2023-09-12T14:11:56;13.20;;;8.20;;
3991;SDS011;2010;48.194;16.394;2023-09-12T14:14:32;11.23;;;8.37;;
3991;SDS011;2010;48.194;16.394;2023-09-12T14:17:06;9.70;;;8.73;;
3991;SDS011;2010;48.194;16.394;2023-09-12T14:19:52;11.23;;;8.60;;
3991;SDS011;2010;48.194;16.394;2023-09-12T14:22:27;9.10;;;8.30;;
3991;SDS011;2010;48.194;16.394;2023-09-12T14:25:24;9.80;;;8.33;;
3991;SDS011;2010;48.194;16.394;2023-09-12T14:28:00;11.73;;;8.20;;
3991;SDS011;2010;48.194;16.394;2023-09-12T14:30:42;11.50;;;8.73;;
3991;SDS011;2010;48.194;16.394;2023-09-12T14:33:27;13.53;;;8.50;;
3991;SDS011;2010;48.194;16.394;2023-09-12T14:36:11;9.17;;;8.27;;
3991;SDS011;2010;48.194;16.394;2023-09-12T14:38:59;12.70;;;7.50;;
3991;SDS011;2010;48.194;16.394;2023-09-12T14:41:46;8.77;;;7.80;;
3991;SDS011;2010;48.194;16.394;2023-09-12T14:44:27;8.77;;;7.87;;
3991;SDS011;2010;48.194;16.394;2023-09-12T14:47:19;8.97;;;8.00;;
3991;SDS011;2010;48.194;16.394;2023-09-12T14:50:08;9.10;;;8.30;;
3991;SDS011;2010;48.194;16.394;2023-09-12T14:52:47;8.97;;;8.03;;
3991;SDS011;2010;48.194;16.394;2023-09-12T14:55:24;7.87;;;7.27;;
3991;SDS011;2010;48.194;16.394;2023-09-12T14:58:02;10.90;;;7.90;;
3991;SDS011;2010;48.194;16.394;2023-09-12T15:00:36;9.17;;;8.23;;
3991;SDS011;2010;48.194;16.394;2023-09-12T15:03:10;8.90;;;8.00;;
3991;SDS011;2010;48.194;16.394;2023-09-12T15:05:52;9.20;;;8.30;;
3991;SDS011;2010;48.194;16.394;2023-09-12T15:08:28;15.00;;;7.80;;
3991;SDS011;2010;48.194;16.394;2023-09-12T15:11:05;16.73;;;8.10;;
3991;SDS011;2010;48.194;16.394;2023-09-12T15:13:50;9.77;;;7.43;;
3991;SDS011;2010;48.194;16.394;2023-09-12T15:16:22;9.23;;;8.43;;
3991;SDS011;2010;48.194;16.394;2023-09-12T15:19:00;10.80;;;7.90;;
3991;SDS011;2010;48.194;16.394;2023-09-12T15:21:40;8.63;;;7.60;;
3991;SDS011;2010;48.194;16.394;2023-09-12T15:24:10;10.77;;;7.83;;
3991;SDS011;2010;48.194;16.394;2023-09-12T15:26:40;9.47;;;7.60;;
3991;SDS011;2010;48.194;16.394;2023-09-12T15:29:30;8.47;;;7.60;;
3991;SDS011;2010;48.194;16.394;2023-09-12T15:32:06;8.53;;;7.80;;
3991;SDS011;2010;48.194;16.394;2023-09-12T15:34:39;9.13;;;8.23;;
3991;SDS011;2010;48.194;16.394;2023-09-12T15:37:20;9.87;;;7.43;;